Weather reports worldwide

Advertisment
Isola Stromboli, Italy (16416): temperature & dewpoint: 04.07.2020 05:00:00 - 10.07.2020 05:00:00 (CEST)Isola Stromboli, Italy (16416): wind speed: 04.07.2020 05:00:00 - 10.07.2020 05:00:00 (CEST)Isola Stromboli, Italy (16416): wind direction: 04.07.2020 05:00:00 - 10.07.2020 05:00:00 (CEST)Isola Stromboli, Italy (16416): reduced air pressure: 04.07.2020 05:00:00 - 10.07.2020 05:00:00 (CEST)Isola Stromboli, Italy (16416): precipitation: 04.07.2020 05:00:00 - 10.07.2020 05:00:00 (CEST)
Date & Time tt [°C] td [°C] ff [km/h] ff [kn] dd ppp [hPa] rr [mm]
10.07.2020 05:00:00 - - - - - - -
10.07.2020 04:00:00 23,4 20,7 4 2 S 1015,4 -
10.07.2020 03:00:00 23,9 21,9 8 4 S 1015,6 -
10.07.2020 02:00:00 24,3 22,3 5 3 S 1015,8 0,0
10.07.2020 01:00:00 23,2 20,7 4 2 S 1015,9 -
10.07.2020 00:00:00 24,1 20,6 4 2 S 1016,1 -
09.07.2020 23:00:00 24,6 21,1 5 3 S 1016,0 -
09.07.2020 22:00:00 24,6 21,5 4 2 S 1015,9 -
09.07.2020 21:00:00 25,1 21,9 5 3 S 1015,5 -
09.07.2020 20:00:00 26,5 22,9 8 4 S 1015,2 0,0
09.07.2020 19:00:00 27,2 22,5 11 6 S 1015,3 -
09.07.2020 18:00:00 27,7 23,9 13 7 S 1015,3 -
09.07.2020 17:00:00 27,5 23,9 15 8 S 1015,8 -
09.07.2020 16:00:00 27,8 24,6 15 8 S 1016,1 -
09.07.2020 15:00:00 27,7 23,9 15 8 S 1016,3 -
09.07.2020 14:00:00 27,9 23,9 13 7 S 1016,5 0,0
09.07.2020 13:00:00 27,3 23,5 4 2 S 1016,9 -
09.07.2020 12:00:00 28,1 24,1 5 3 S 1016,9 -
09.07.2020 11:00:00 29,2 24,5 8 4 S 1016,6 -
09.07.2020 10:00:00 28,7 25,1 5 3 S 1016,5 -
09.07.2020 09:00:00 27,7 25,9 8 4 S 1016,6 -
09.07.2020 08:00:00 27,2 26,0 8 4 S 1016,1 0,0
09.07.2020 07:00:00 24,9 24,3 4 2 S 1015,9 -
09.07.2020 06:00:00 23,4 22,5 5 3 S 1015,8 -
09.07.2020 05:00:00 23,9 23,0 8 4 S 1015,7 -
09.07.2020 04:00:00 24,1 23,5 8 4 S 1015,6 -
09.07.2020 03:00:00 24,1 23,4 8 4 S 1015,5 -
09.07.2020 02:00:00 24,3 23,4 5 3 S 1015,7 0,0
09.07.2020 01:00:00 24,4 23,3 5 3 S 1015,8 -
09.07.2020 00:00:00 24,3 23,0 5 3 S 1015,7 -
08.07.2020 23:00:00 24,4 22,6 0 0 N 1015,7 -
08.07.2020 22:00:00 24,6 22,4 2 1 S 1015,4 -
08.07.2020 21:00:00 25,0 22,2 2 1 S 1015,0 -
08.07.2020 20:00:00 26,4 22,4 4 2 S 1014,7 0,0
08.07.2020 19:00:00 27,2 22,3 5 3 S 1014,3 -
08.07.2020 18:00:00 27,9 22,8 5 3 S 1014,5 -
08.07.2020 17:00:00 28,4 23,5 8 4 S 1014,8 -
08.07.2020 16:00:00 28,7 23,6 8 4 S 1014,8 -
08.07.2020 15:00:00 28,6 23,7 8 4 S 1015,0 -
08.07.2020 14:00:00 28,7 24,0 8 4 S 1015,1 0,0
08.07.2020 13:00:00 27,9 23,4 9 5 S 1015,2 -
08.07.2020 12:00:00 27,8 23,8 8 4 S 1015,0 -
08.07.2020 11:00:00 27,3 24,3 9 5 S 1014,7 -
08.07.2020 10:00:00 27,3 25,3 8 4 S 1014,4 -
08.07.2020 09:00:00 26,3 24,5 9 5 S 1014,0 -
08.07.2020 08:00:00 25,1 24,4 5 3 S 1013,7 0,0
08.07.2020 07:00:00 24,1 23,9 4 2 S 1013,3 -
08.07.2020 06:00:00 22,8 22,4 4 2 S 1013,0 -
08.07.2020 05:00:00 22,7 21,8 0 0 N 1012,8 -
08.07.2020 04:00:00 22,5 21,8 4 2 S 1012,8 -
08.07.2020 03:00:00 23,0 21,9 4 2 S 1012,6 -
08.07.2020 02:00:00 23,0 21,8 5 3 S 1012,6 0,0
08.07.2020 01:00:00 23,2 21,4 4 2 S 1012,6 -
08.07.2020 00:00:00 23,7 21,5 2 1 S 1012,8 -
07.07.2020 23:00:00 23,6 21,2 0 0 N 1012,6 -
07.07.2020 22:00:00 23,7 21,3 2 1 S 1012,1 -
07.07.2020 21:00:00 23,8 19,7 4 2 S 1011,8 -
07.07.2020 20:00:00 25,4 23,2 4 2 S 1011,1 0,0
07.07.2020 19:00:00 25,6 23,2 13 7 S 1010,7 -
07.07.2020 18:00:00 26,2 23,4 11 6 S 1010,5 -
07.07.2020 17:00:00 26,3 23,3 11 6 S 1010,6 -
07.07.2020 16:00:00 26,3 22,9 16 9 S 1010,6 -
07.07.2020 15:00:00 26,4 22,4 21 11 S 1010,2 -
07.07.2020 14:00:00 27,2 22,3 16 9 S 1009,9 0,0
07.07.2020 13:00:00 27,4 22,3 9 5 S 1010,2 -
07.07.2020 12:00:00 27,7 23,0 9 5 S 1009,7 -
07.07.2020 11:00:00 26,9 22,3 8 4 S 1009,2 -
07.07.2020 10:00:00 26,0 22,8 11 6 S 1008,7 -
07.07.2020 09:00:00 25,2 22,0 16 9 S 1008,6 -
07.07.2020 08:00:00 25,6 22,8 4 2 S 1008,4 0,0
07.07.2020 07:00:00 23,9 22,1 0 0 N 1008,0 -
07.07.2020 06:00:00 22,9 20,7 4 2 S 1007,7 -
07.07.2020 05:00:00 23,4 21,2 8 4 S 1007,3 -
07.07.2020 04:00:00 23,6 21,6 13 7 S 1007,3 -
07.07.2020 03:00:00 23,7 21,9 13 7 S 1007,4 -
07.07.2020 02:00:00 23,9 22,5 16 9 S 1007,6 0,0
07.07.2020 01:00:00 24,1 22,7 18 10 S 1007,6 -
07.07.2020 00:00:00 24,4 23,3 13 7 S 1007,9 -
06.07.2020 23:00:00 24,1 23,0 8 4 S 1007,9 -
06.07.2020 22:00:00 24,3 22,9 8 4 S 1007,9 -
06.07.2020 21:00:00 24,5 23,1 15 8 S 1007,4 -
06.07.2020 20:00:00 25,0 23,2 15 8 S 1007,2 0,0
06.07.2020 19:00:00 25,5 23,3 18 10 S 1007,1 -
06.07.2020 18:00:00 26,0 23,6 21 11 S 1007,0 -
06.07.2020 17:00:00 25,9 23,5 28 15 S 1007,1 -
06.07.2020 16:00:00 26,6 23,6 26 14 S 1007,1 -
06.07.2020 15:00:00 26,3 23,5 24 13 S 1008,0 -
06.07.2020 14:00:00 26,8 23,8 26 14 S 1008,0 0,0
06.07.2020 13:00:00 26,8 23,6 28 15 S 1008,2 -
06.07.2020 12:00:00 26,8 22,8 28 15 S 1008,3 -
06.07.2020 11:00:00 26,9 22,9 21 11 S 1008,7 -
06.07.2020 10:00:00 26,4 21,8 22 12 S 1008,5 -
06.07.2020 09:00:00 25,9 22,9 18 10 S 1008,6 -
06.07.2020 08:00:00 25,5 22,7 21 11 S 1008,3 0,0
06.07.2020 07:00:00 24,6 22,6 22 12 S 1008,4 -
06.07.2020 06:00:00 24,1 23,0 28 15 S 1008,5 -
06.07.2020 05:00:00 24,1 22,5 28 15 S 1008,9 -
06.07.2020 04:00:00 24,5 21,2 28 15 S 1009,3 -
06.07.2020 03:00:00 24,4 20,0 24 13 S 1010,0 -
06.07.2020 02:00:00 25,3 19,1 26 14 S 1010,7 0,0
06.07.2020 01:00:00 23,9 21,7 15 8 S 1011,4 -
06.07.2020 00:00:00 24,0 21,5 15 8 S 1011,7 -
05.07.2020 23:00:00 23,8 21,4 13 7 S 1011,8 -
05.07.2020 22:00:00 24,1 21,4 15 8 S 1011,7 -
05.07.2020 21:00:00 24,2 21,1 15 8 S 1011,4 -
05.07.2020 20:00:00 24,8 21,7 16 9 S 1011,2 0,0
05.07.2020 19:00:00 25,7 20,7 22 12 S 1011,2 -
05.07.2020 18:00:00 26,0 20,3 24 13 S 1011,2 -
05.07.2020 17:00:00 25,8 20,1 26 14 S 1011,6 -
05.07.2020 16:00:00 26,0 20,0 28 15 S 1012,0 -
05.07.2020 15:00:00 26,3 19,9 26 14 S 1012,2 -
05.07.2020 14:00:00 25,8 20,5 24 13 S 1012,4 0,0
05.07.2020 13:00:00 25,8 20,8 15 8 S 1013,0 -
05.07.2020 12:00:00 26,4 20,7 13 7 S 1013,3 -
05.07.2020 11:00:00 27,0 22,8 15 8 S 1013,2 -
05.07.2020 10:00:00 25,6 22,2 16 9 S 1012,9 -
05.07.2020 09:00:00 25,2 22,8 18 10 S 1012,6 -
05.07.2020 08:00:00 24,6 22,6 9 5 S 1012,1 0,0
05.07.2020 07:00:00 23,9 22,1 15 8 S 1012,0 -
05.07.2020 06:00:00 23,4 21,6 16 9 S 1011,8 -
05.07.2020 05:00:00 23,7 22,1 22 12 S 1012,1 -
05.07.2020 04:00:00 23,7 22,1 24 13 S 1012,0 -
05.07.2020 03:00:00 23,8 22,7 24 13 S 1012,5 -
05.07.2020 02:00:00 23,4 22,1 22 12 S 1012,6 0,0
05.07.2020 01:00:00 22,4 20,6 15 8 S 1013,4 -
05.07.2020 00:00:00 22,2 19,7 2 1 S 1014,1 -
04.07.2020 23:00:00 21,2 19,4 8 4 S 1013,3 -
04.07.2020 22:00:00 21,0 19,9 8 4 S 1013,8 -
04.07.2020 21:00:00 20,4 19,0 16 9 S 1013,8 -
04.07.2020 20:00:00 24,4 23,1 21 11 S 1012,7 0,0
04.07.2020 19:00:00 25,1 23,7 22 12 S 1012,7 -
04.07.2020 18:00:00 25,7 23,9 22 12 S 1012,2 -
04.07.2020 17:00:00 25,6 24,3 22 12 S 1012,6 -
04.07.2020 16:00:00 26,8 24,2 18 10 S 1013,0 -
04.07.2020 15:00:00 27,3 24,3 21 11 S 1013,1 -
04.07.2020 14:00:00 27,0 23,8 18 10 S 1013,4 0,0
04.07.2020 13:00:00 27,2 24,2 18 10 S 1013,8 -
04.07.2020 12:00:00 26,5 23,3 18 10 S 1013,9 -
04.07.2020 11:00:00 27,9 24,3 5 3 S 1013,4 -
04.07.2020 10:00:00 27,1 24,1 16 9 S 1013,3 -
04.07.2020 09:00:00 27,4 23,8 8 4 S 1013,8 -
04.07.2020 08:00:00 26,5 23,7 5 3 S 1013,3 0,0
04.07.2020 07:00:00 25,1 23,5 4 2 S 1013,4 -
04.07.2020 06:00:00 23,3 21,9 5 3 S 1013,1 -
04.07.2020 05:00:00 24,0 22,2 4 2 S 1013,1 -

tt = temperature
td = dewpoint
ff = wind speed
dd = wind direction
ppp = reduced air pressure
rr = precipitation

Next stations